createdAt,value
2018-08-23T00:01:30.640Z,86.80
2018-08-23T00:04:06.212Z,86.00
2018-08-23T00:06:35.650Z,86.20
2018-08-23T00:09:06.556Z,86.20
2018-08-23T00:11:39.643Z,86.20
2018-08-23T00:14:08.635Z,86.40
2018-08-23T00:16:42.749Z,86.70
2018-08-23T00:19:11.748Z,86.70
2018-08-23T00:21:44.452Z,86.80
2018-08-23T00:24:15.045Z,86.80
2018-08-23T00:26:51.008Z,86.90
2018-08-23T00:31:30.011Z,86.90
2018-08-23T00:33:59.002Z,87.10
2018-08-23T00:36:28.022Z,87.30
2018-08-23T00:38:57.005Z,87.40
2018-08-23T00:41:25.988Z,87.50
2018-08-23T00:43:54.945Z,87.80
2018-08-23T00:46:24.021Z,87.70
2018-08-23T00:48:53.000Z,87.90
2018-08-23T00:51:21.936Z,88.10
2018-08-23T00:53:56.244Z,88.10
2018-08-23T00:56:25.219Z,88.10
2018-08-23T00:58:59.112Z,88.20
2018-08-23T01:01:28.077Z,88.10
2018-08-23T01:03:57.116Z,88.00
2018-08-23T01:06:37.216Z,88.80
2018-08-23T01:09:07.992Z,87.90
2018-08-23T01:11:37.124Z,87.80
2018-08-23T01:14:06.252Z,88.00
2018-08-23T01:16:35.240Z,88.00
2018-08-23T01:19:09.364Z,88.40
2018-08-23T01:21:49.032Z,88.50
2018-08-23T01:24:17.976Z,88.60
2018-08-23T01:26:46.984Z,88.80
2018-08-23T01:29:27.988Z,88.70
2018-08-23T01:32:06.752Z,88.70
2018-08-23T01:34:35.885Z,88.80
2018-08-23T01:37:04.912Z,88.80
2018-08-23T01:39:34.448Z,88.70
2018-08-23T01:42:03.465Z,88.70
2018-08-23T01:44:46.996Z,88.80
2018-08-23T01:47:16.011Z,89.60
2018-08-23T01:49:45.025Z,88.90
2018-08-23T01:52:14.050Z,89.00
2018-08-23T01:54:43.132Z,89.30
2018-08-23T01:57:12.277Z,89.60
2018-08-23T01:59:41.373Z,89.60
2018-08-23T02:02:19.761Z,89.30
2018-08-23T02:04:48.808Z,89.60
2018-08-23T02:07:17.814Z,89.70
2018-08-23T02:09:47.159Z,89.70
2018-08-23T02:12:16.148Z,89.90
2018-08-23T02:14:46.588Z,90.10
2018-08-23T02:17:15.763Z,90.20
2018-08-23T02:19:48.976Z,90.10
2018-08-23T02:22:18.250Z,90.00
2018-08-23T02:24:49.060Z,89.80
2018-08-23T02:27:19.648Z,90.40
2018-08-23T02:29:49.464Z,90.00
2018-08-23T02:32:18.498Z,89.80
2018-08-23T02:34:48.319Z,89.70
2018-08-23T02:37:18.305Z,90.00
2018-08-23T02:39:47.744Z,90.10
2018-08-23T02:42:18.531Z,90.10
2018-08-23T02:44:47.865Z,90.10
2018-08-23T02:47:16.876Z,90.10
2018-08-23T02:49:45.877Z,90.30
2018-08-23T02:52:14.895Z,90.10
2018-08-23T02:54:43.973Z,90.10
2018-08-23T02:57:12.999Z,90.10
2018-08-23T02:59:42.141Z,90.10
2018-08-23T03:02:13.151Z,90.20
2018-08-23T03:04:42.239Z,90.30
2018-08-23T03:07:11.293Z,90.40
2018-08-23T03:09:41.649Z,90.40
2018-08-23T03:12:16.641Z,90.40
2018-08-23T03:14:45.676Z,90.40
2018-08-23T03:17:23.209Z,90.40
2018-08-23T03:20:08.077Z,90.40
2018-08-23T03:22:37.341Z,90.50
2018-08-23T03:25:08.239Z,90.60
2018-08-23T03:27:37.410Z,90.80
2018-08-23T03:30:07.941Z,90.80
2018-08-23T03:32:37.064Z,90.80
2018-08-23T03:35:06.796Z,90.70
2018-08-23T03:37:35.788Z,90.80
2018-08-23T03:40:05.222Z,90.90
2018-08-23T03:42:34.328Z,90.80
2018-08-23T03:45:03.528Z,90.80
2018-08-23T03:47:40.440Z,90.80
2018-08-23T03:50:10.096Z,90.70
2018-08-23T03:52:41.074Z,90.70
2018-08-23T03:55:11.252Z,90.60
2018-08-23T03:57:45.432Z,90.60
2018-08-23T04:00:14.453Z,90.70
2018-08-23T04:02:43.407Z,90.80
2018-08-23T04:05:17.484Z,91.00
2018-08-23T04:07:46.464Z,90.90
2018-08-23T04:10:15.445Z,90.90
2018-08-23T04:12:45.074Z,91.00
2018-08-23T04:15:22.242Z,91.10
2018-08-23T04:17:51.700Z,91.10
2018-08-23T04:20:20.805Z,90.90
2018-08-23T04:22:49.859Z,90.90
2018-08-23T04:25:18.868Z,90.80
2018-08-23T04:29:55.516Z,90.80
2018-08-23T04:32:29.856Z,90.80
2018-08-23T04:35:00.548Z,90.60
2018-08-23T04:37:30.364Z,90.70
2018-08-23T04:40:06.176Z,90.80
2018-08-23T04:42:35.629Z,91.40
2018-08-23T04:45:28.655Z,92.70
2018-08-23T04:48:03.917Z,91.90
2018-08-23T04:50:35.312Z,90.20
2018-08-23T04:53:04.377Z,88.20
2018-08-23T04:55:33.429Z,87.60
2018-08-23T04:58:03.113Z,88.00
2018-08-23T05:00:32.384Z,88.20
2018-08-23T05:03:01.397Z,88.50
2018-08-23T05:05:30.437Z,88.90
2018-08-23T05:07:59.450Z,88.80
2018-08-23T05:10:28.546Z,88.80
2018-08-23T05:12:57.614Z,88.90
2018-08-23T05:15:26.666Z,89.40
2018-08-23T05:17:55.633Z,89.60
2018-08-23T05:20:24.734Z,89.80
2018-08-23T05:22:58.948Z,89.70
2018-08-23T05:25:27.941Z,89.60
2018-08-23T05:28:18.478Z,89.50
2018-08-23T05:30:48.049Z,89.90
2018-08-23T05:33:19.021Z,89.70
2018-08-23T05:35:48.080Z,89.40
2018-08-23T05:38:17.831Z,89.00
2018-08-23T05:40:52.520Z,88.90
2018-08-23T05:43:22.168Z,88.20
2018-08-23T05:45:56.952Z,88.20
2018-08-23T05:48:32.251Z,87.90
2018-08-23T05:51:05.093Z,87.60
2018-08-23T05:53:38.614Z,87.00
2018-08-23T05:56:08.152Z,86.50
2018-08-23T05:58:37.506Z,86.40
2018-08-23T06:01:07.592Z,86.00
2018-08-23T06:03:38.067Z,85.50
2018-08-23T06:06:07.088Z,85.20
2018-08-23T06:08:36.245Z,84.70
2018-08-23T06:11:11.967Z,85.40
2018-08-23T06:13:41.206Z,84.90
2018-08-23T06:16:10.189Z,84.40
2018-08-23T06:18:39.244Z,83.80
2018-08-23T06:21:08.274Z,83.50
2018-08-23T06:24:00.441Z,83.20
2018-08-23T06:26:43.467Z,83.10
2018-08-23T06:29:16.715Z,82.70
2018-08-23T06:31:57.506Z,82.30
2018-08-23T06:34:27.836Z,82.20
2018-08-23T06:36:56.852Z,81.30
2018-08-23T06:39:25.857Z,80.90
2018-08-23T06:41:56.412Z,80.40
2018-08-23T06:44:34.947Z,79.70
2018-08-23T06:47:04.004Z,79.60
2018-08-23T06:49:33.005Z,79.20
2018-08-23T06:52:11.306Z,78.60
2018-08-23T06:54:40.786Z,78.20
2018-08-23T06:57:10.196Z,77.40
2018-08-23T06:59:39.575Z,77.90
2018-08-23T07:02:08.944Z,77.10
2018-08-23T07:04:37.991Z,77.40
2018-08-23T07:07:10.654Z,76.80
2018-08-23T07:09:41.594Z,76.20
2018-08-23T07:12:15.873Z,75.80
2018-08-23T07:14:46.208Z,74.90
2018-08-23T07:17:20.497Z,73.80
2018-08-23T07:19:50.516Z,73.30
2018-08-23T07:22:21.889Z,73.90
2018-08-23T07:24:52.205Z,74.00
2018-08-23T07:27:22.153Z,73.80
2018-08-23T07:29:53.524Z,73.20
2018-08-23T07:32:30.363Z,72.60
2018-08-23T07:35:05.167Z,72.40
2018-08-23T07:37:36.453Z,70.10
2018-08-23T07:40:14.092Z,69.60
2018-08-23T07:42:44.180Z,69.90
2018-08-23T07:45:13.577Z,70.90
2018-08-23T07:47:45.619Z,68.90
2018-08-23T07:50:14.689Z,70.00
2018-08-23T07:52:46.967Z,70.60
2018-08-23T07:55:16.784Z,70.30
2018-08-23T07:57:46.139Z,70.60
2018-08-23T08:00:25.577Z,70.90
2018-08-23T08:02:54.690Z,70.20
2018-08-23T08:05:27.915Z,70.70
2018-08-23T08:07:57.057Z,69.10
2018-08-23T08:10:30.278Z,69.00
2018-08-23T08:12:59.297Z,67.80
2018-08-23T08:15:28.348Z,67.30
2018-08-23T08:18:04.888Z,67.00
2018-08-23T08:20:34.608Z,66.50
2018-08-23T08:23:03.621Z,66.10
2018-08-23T08:25:33.557Z,64.00
2018-08-23T08:28:02.555Z,65.70
2018-08-23T08:30:41.424Z,65.30
2018-08-23T08:33:12.778Z,64.40
2018-08-23T08:35:43.930Z,63.20
2018-08-23T08:38:13.237Z,63.90
2018-08-23T08:40:42.265Z,62.90
2018-08-23T08:43:11.241Z,63.40
2018-08-23T08:45:40.298Z,63.60
2018-08-23T08:48:29.457Z,63.20
2018-08-23T08:51:14.810Z,63.20
2018-08-23T08:53:44.347Z,60.90
2018-08-23T08:56:13.394Z,61.20
2018-08-23T09:00:51.124Z,60.40
2018-08-23T09:03:21.681Z,60.40
2018-08-23T09:05:50.716Z,60.50
2018-08-23T09:08:19.792Z,60.60
2018-08-23T09:10:48.814Z,60.30
2018-08-23T09:13:18.124Z,59.50
2018-08-23T09:15:50.233Z,57.50
2018-08-23T09:20:31.677Z,57.10
2018-08-23T09:23:00.653Z,57.60
2018-08-23T09:25:33.844Z,56.10
2018-08-23T09:28:02.889Z,56.00
2018-08-23T09:30:33.151Z,56.20
2018-08-23T09:35:11.423Z,54.10
2018-08-23T09:37:40.962Z,53.00
2018-08-23T09:40:09.991Z,54.80
2018-08-23T09:42:39.352Z,52.60
2018-08-23T09:45:13.279Z,52.90
2018-08-23T09:47:42.517Z,54.00
2018-08-23T09:50:11.604Z,53.30
2018-08-23T09:52:47.376Z,51.90
2018-08-23T09:55:17.692Z,51.60
2018-08-23T09:57:47.166Z,50.60
2018-08-23T10:00:26.009Z,50.60
2018-08-23T10:03:00.269Z,50.80
2018-08-23T10:05:34.500Z,50.20
2018-08-23T10:08:08.673Z,50.20
2018-08-23T10:10:43.059Z,49.50
2018-08-23T10:13:17.294Z,48.80
2018-08-23T10:15:51.692Z,49.00
2018-08-23T10:18:27.549Z,47.80
2018-08-23T10:20:59.992Z,47.70
2018-08-23T10:23:29.055Z,47.40
2018-08-23T10:25:59.377Z,47.50
2018-08-23T10:28:32.530Z,48.20
2018-08-23T10:31:01.537Z,48.50
2018-08-23T10:33:30.553Z,47.00
2018-08-23T10:35:59.557Z,46.40
2018-08-23T10:38:29.061Z,46.20
2018-08-23T10:41:04.480Z,46.30
2018-08-23T10:43:38.700Z,45.20
2018-08-23T10:46:07.740Z,44.90
2018-08-23T10:48:36.791Z,44.40
2018-08-23T10:51:07.302Z,45.20
2018-08-23T10:55:45.029Z,44.20
2018-08-23T10:58:14.363Z,44.80
2018-08-23T11:00:43.651Z,43.00
2018-08-23T11:03:12.685Z,42.90
2018-08-23T11:05:41.702Z,43.10
2018-08-23T11:08:15.784Z,43.40
2018-08-23T11:10:49.915Z,43.20
2018-08-23T11:13:24.088Z,42.50
2018-08-23T11:15:58.257Z,43.10
2018-08-23T11:18:32.585Z,42.30
2018-08-23T11:21:01.609Z,41.20
2018-08-23T11:23:30.689Z,41.70
2018-08-23T11:25:59.675Z,41.60
2018-08-23T11:28:28.672Z,42.20
2018-08-23T11:31:02.637Z,40.10
2018-08-23T11:33:31.679Z,39.10
2018-08-23T11:36:00.733Z,37.90
2018-08-23T11:38:29.767Z,37.50
2018-08-23T11:40:58.782Z,36.20
2018-08-23T11:43:27.930Z,38.00
2018-08-23T11:46:01.938Z,35.90
2018-08-23T11:48:31.267Z,36.10
2018-08-23T11:51:00.284Z,36.30
2018-08-23T11:53:29.525Z,35.60
2018-08-23T11:55:59.304Z,36.00
2018-08-23T11:58:28.313Z,36.80
2018-08-23T12:01:01.465Z,38.10
2018-08-23T12:03:30.457Z,38.30
2018-08-23T12:05:59.476Z,37.80
2018-08-23T12:08:28.531Z,38.00
2018-08-23T12:10:57.607Z,38.50
2018-08-23T12:13:26.634Z,37.70
2018-08-23T12:15:55.648Z,37.40
2018-08-23T12:18:24.817Z,36.00
2018-08-23T12:20:53.784Z,35.80
2018-08-23T12:23:22.789Z,36.60
2018-08-23T12:25:51.872Z,38.80
2018-08-23T12:28:26.181Z,37.80
2018-08-23T12:30:55.145Z,39.10
2018-08-23T12:33:24.153Z,40.70
2018-08-23T12:35:54.016Z,42.70
2018-08-23T12:38:28.233Z,44.50
2018-08-23T12:41:03.104Z,46.30
2018-08-23T12:43:38.867Z,45.90
2018-08-23T12:46:07.878Z,44.20
2018-08-23T12:48:36.884Z,44.10
2018-08-23T12:51:05.913Z,44.10
2018-08-23T12:53:34.933Z,44.20
2018-08-23T12:56:03.986Z,45.50
2018-08-23T12:58:33.041Z,45.90
2018-08-23T13:01:02.213Z,47.10
2018-08-23T13:03:31.530Z,45.90
2018-08-23T13:06:00.604Z,47.10
2018-08-23T13:08:30.270Z,47.00
2018-08-23T13:10:59.328Z,46.90
2018-08-23T13:13:28.352Z,47.20
2018-08-23T13:15:57.328Z,46.50
2018-08-23T13:18:26.732Z,46.30
2018-08-23T13:20:55.808Z,45.60
2018-08-23T13:23:24.876Z,46.00
2018-08-23T13:25:54.660Z,46.30
2018-08-23T13:28:24.116Z,47.50
2018-08-23T13:30:55.029Z,46.80
2018-08-23T13:33:25.152Z,47.10
2018-08-23T13:35:55.005Z,47.50
2018-08-23T13:38:24.789Z,48.60
2018-08-23T13:40:54.246Z,48.80
2018-08-23T13:43:23.413Z,49.30
2018-08-23T13:45:52.337Z,48.70
2018-08-23T13:48:21.689Z,49.40
2018-08-23T13:50:56.646Z,50.70
2018-08-23T13:53:26.280Z,51.00
2018-08-23T13:55:55.293Z,50.90
2018-08-23T13:58:24.409Z,51.30
2018-08-23T14:00:53.366Z,51.20
2018-08-23T14:03:22.656Z,51.20
2018-08-23T14:05:51.672Z,50.70
2018-08-23T14:13:08.336Z,51.10
2018-08-23T14:15:42.449Z,51.50
2018-08-23T14:18:11.557Z,51.50
2018-08-23T14:20:40.604Z,51.60
2018-08-23T14:23:09.628Z,52.60
2018-08-23T14:25:38.885Z,52.70
2018-08-23T14:28:07.893Z,52.90
2018-08-23T14:30:36.852Z,53.90
2018-08-23T14:33:05.927Z,54.10
2018-08-23T14:35:34.907Z,54.30
2018-08-23T14:38:03.929Z,54.80
2018-08-23T14:40:33.149Z,54.20
2018-08-23T14:43:02.145Z,55.00
2018-08-23T14:45:32.408Z,55.40
2018-08-23T14:48:06.522Z,55.20
2018-08-23T14:50:36.329Z,54.80
2018-08-23T14:53:06.136Z,56.10
2018-08-23T14:55:40.256Z,57.00
2018-08-23T14:58:10.404Z,57.50
2018-08-23T15:00:40.893Z,57.90
2018-08-23T15:03:09.828Z,58.60
2018-08-23T15:05:38.829Z,58.80
2018-08-23T15:08:07.894Z,58.60
2018-08-23T15:10:36.888Z,58.60
2018-08-23T15:13:05.990Z,59.10
2018-08-23T15:15:40.165Z,59.30
2018-08-23T15:18:09.216Z,59.50
2018-08-23T15:20:38.175Z,60.10
2018-08-23T15:23:07.848Z,59.80
2018-08-23T15:25:37.005Z,59.70
2018-08-23T15:28:06.193Z,59.90
2018-08-23T15:30:35.173Z,59.70
2018-08-23T15:33:04.807Z,58.90
2018-08-23T15:35:34.833Z,59.10
2018-08-23T15:38:04.019Z,57.50
2018-08-23T15:40:33.042Z,57.10
2018-08-23T15:43:02.109Z,57.90
2018-08-23T15:45:31.636Z,57.20
2018-08-23T15:48:00.932Z,57.30
2018-08-23T15:50:29.890Z,58.10
2018-08-23T15:52:59.725Z,57.70
2018-08-23T15:55:28.972Z,59.30
2018-08-23T15:57:57.730Z,60.00
2018-08-23T16:00:34.105Z,59.40
2018-08-23T16:03:03.181Z,59.40
2018-08-23T16:05:32.206Z,58.30
2018-08-23T16:08:01.184Z,57.70
2018-08-23T16:10:30.255Z,58.70
2018-08-23T16:12:59.307Z,58.90
2018-08-23T16:15:28.680Z,58.10
2018-08-23T16:18:02.969Z,57.70
2018-08-23T16:20:37.237Z,56.70
2018-08-23T16:23:06.337Z,54.40
2018-08-23T16:25:43.033Z,53.20
2018-08-23T16:28:12.236Z,50.60
2018-08-23T16:30:42.548Z,46.90
2018-08-23T16:33:12.383Z,43.90
2018-08-23T16:35:41.997Z,41.40
2018-08-23T16:38:10.993Z,40.00
2018-08-23T16:40:40.028Z,39.20
2018-08-23T16:43:09.118Z,38.70
2018-08-23T16:45:38.174Z,38.30
2018-08-23T16:48:07.180Z,38.40
2018-08-23T16:50:36.300Z,38.60
2018-08-23T16:53:05.710Z,39.10
2018-08-23T16:55:34.705Z,39.80
2018-08-23T16:58:03.754Z,41.20
2018-08-23T17:00:32.892Z,43.30
2018-08-23T17:03:02.064Z,46.30
2018-08-23T17:05:31.114Z,49.40
2018-08-23T17:08:00.105Z,51.70
2018-08-23T17:10:29.270Z,53.50
2018-08-23T17:12:58.730Z,54.70
2018-08-23T17:15:31.989Z,56.40
2018-08-23T17:18:01.027Z,57.20
2018-08-23T17:20:30.181Z,58.50
2018-08-23T17:22:59.236Z,59.50
2018-08-23T17:25:28.384Z,60.70
2018-08-23T17:27:57.596Z,62.10
2018-08-23T17:30:26.781Z,63.10
2018-08-23T17:32:55.966Z,64.10
2018-08-23T17:35:25.077Z,64.80
2018-08-23T17:37:54.135Z,65.80
2018-08-23T17:40:23.232Z,66.60
2018-08-23T17:42:52.319Z,67.30
2018-08-23T17:45:21.433Z,68.80
2018-08-23T17:47:50.405Z,70.10
2018-08-23T17:50:19.518Z,71.50
2018-08-23T17:52:48.640Z,72.30
2018-08-23T17:55:17.687Z,74.00
2018-08-23T17:57:47.444Z,75.90
2018-08-23T18:00:16.480Z,76.70
2018-08-23T18:02:45.529Z,76.50
2018-08-23T18:05:14.548Z,76.00
2018-08-23T18:07:43.655Z,75.90
2018-08-23T18:10:13.305Z,76.30
2018-08-23T18:12:42.429Z,77.00
2018-08-23T18:15:11.464Z,78.40
2018-08-23T18:17:40.947Z,79.40
2018-08-23T18:20:10.294Z,79.80
2018-08-23T18:22:39.673Z,80.70
2018-08-23T18:25:08.675Z,80.80
2018-08-23T18:27:38.073Z,81.00
2018-08-23T18:30:07.545Z,81.10
2018-08-23T18:32:36.800Z,81.30
2018-08-23T18:35:06.157Z,81.50
2018-08-23T18:37:35.403Z,81.40
2018-08-23T18:40:05.102Z,81.40
2018-08-23T18:42:34.484Z,81.50
2018-08-23T18:45:14.318Z,81.60
2018-08-23T18:47:43.738Z,81.90
2018-08-23T18:50:14.002Z,82.10
2018-08-23T18:52:43.789Z,82.20
2018-08-23T18:55:12.876Z,82.20
2018-08-23T18:57:42.337Z,82.20
2018-08-23T19:00:11.891Z,82.00
2018-08-23T19:02:42.629Z,82.40
2018-08-23T19:05:12.038Z,82.60
2018-08-23T19:07:42.665Z,83.30
2018-08-23T19:10:12.706Z,83.60
2018-08-23T19:12:41.864Z,83.10
2018-08-23T19:15:11.646Z,82.90
2018-08-23T19:17:42.064Z,82.50
2018-08-23T19:20:12.381Z,82.60
2018-08-23T19:22:41.489Z,82.80
2018-08-23T19:25:11.188Z,83.00
2018-08-23T19:27:40.120Z,83.30
2018-08-23T19:30:10.193Z,83.40
2018-08-23T19:32:39.273Z,83.50
2018-08-23T19:35:08.373Z,83.70
2018-08-23T19:37:37.708Z,84.10
2018-08-23T19:40:06.801Z,83.80
2018-08-23T19:42:38.622Z,83.40
2018-08-23T19:45:07.751Z,83.80
2018-08-23T19:47:48.678Z,84.00
2018-08-23T19:50:17.751Z,82.80
2018-08-23T19:52:46.965Z,82.60
2018-08-23T19:55:15.986Z,83.00
2018-08-23T19:57:44.998Z,83.40
2018-08-23T20:00:14.126Z,83.60
2018-08-23T20:02:43.238Z,83.80
2018-08-23T20:05:12.573Z,83.90
2018-08-23T20:07:43.126Z,84.10
2018-08-23T20:10:12.340Z,84.20
2018-08-23T20:12:42.383Z,84.00
2018-08-23T20:15:11.414Z,84.00
2018-08-23T20:17:40.412Z,84.10
2018-08-23T20:20:09.442Z,84.00
2018-08-23T20:22:38.448Z,83.80
2018-08-23T20:25:07.535Z,83.80
2018-08-23T20:27:36.583Z,84.00
2018-08-23T20:30:06.060Z,84.10
2018-08-23T20:32:35.540Z,84.20
2018-08-23T20:35:04.572Z,84.90
2018-08-23T20:37:33.539Z,84.10
2018-08-23T20:40:02.640Z,84.10
2018-08-23T20:42:31.640Z,84.20
2018-08-23T20:45:00.605Z,84.30
2018-08-23T20:47:29.700Z,85.30
2018-08-23T20:49:58.652Z,85.50
2018-08-23T20:52:27.649Z,85.20
2018-08-23T20:54:56.780Z,85.50
2018-08-23T20:57:25.788Z,85.70
2018-08-23T20:59:54.765Z,85.80
2018-08-23T21:02:23.817Z,85.70
2018-08-23T21:04:56.637Z,85.60
2018-08-23T21:07:25.642Z,85.30
2018-08-23T21:09:54.764Z,85.50
2018-08-23T21:12:23.711Z,86.20
2018-08-23T21:14:53.351Z,85.90
2018-08-23T21:19:31.209Z,85.60
2018-08-23T21:22:00.198Z,85.40
2018-08-23T21:24:29.297Z,85.60
2018-08-23T21:26:58.496Z,87.00
2018-08-23T21:29:27.743Z,86.50
2018-08-23T21:31:56.792Z,86.70
2018-08-23T21:34:25.810Z,85.90
2018-08-23T21:39:03.453Z,85.30
2018-08-23T21:41:32.476Z,84.90
2018-08-23T21:44:01.457Z,84.70
2018-08-23T21:46:30.456Z,84.80
2018-08-23T21:48:59.481Z,85.00
2018-08-23T21:51:30.193Z,85.40
2018-08-23T21:53:59.180Z,85.50
2018-08-23T21:56:28.137Z,85.70
2018-08-23T21:58:57.142Z,85.80
2018-08-23T22:01:26.120Z,85.80
2018-08-23T22:03:55.197Z,85.90
2018-08-23T22:06:24.232Z,86.00
2018-08-23T22:08:53.224Z,85.70
2018-08-23T22:11:22.285Z,85.70
2018-08-23T22:13:51.956Z,85.90
2018-08-23T22:16:21.028Z,86.00
2018-08-23T22:18:50.056Z,86.20
2018-08-23T22:21:19.072Z,86.50
2018-08-23T22:23:48.065Z,86.60
2018-08-23T22:26:17.055Z,86.60
2018-08-23T22:28:46.103Z,86.30
2018-08-23T22:31:15.110Z,86.40
2018-08-23T22:33:44.106Z,86.40
2018-08-23T22:36:13.152Z,86.80
2018-08-23T22:38:42.149Z,87.00
2018-08-23T22:41:11.210Z,87.90
2018-08-23T22:43:40.241Z,87.40
2018-08-23T22:46:09.241Z,87.40
2018-08-23T22:50:46.156Z,87.10
2018-08-23T22:53:15.152Z,86.70
2018-08-23T22:55:44.119Z,87.60
2018-08-23T22:58:13.101Z,87.20
2018-08-23T23:00:42.772Z,88.20
2018-08-23T23:03:17.137Z,87.80
2018-08-23T23:05:46.128Z,88.00
2018-08-23T23:08:15.200Z,88.00
2018-08-23T23:10:44.192Z,87.90
2018-08-23T23:13:13.260Z,88.00
2018-08-23T23:15:42.252Z,88.10
2018-08-23T23:18:11.242Z,88.30
2018-08-23T23:20:40.241Z,88.50
2018-08-23T23:23:09.236Z,88.50
2018-08-23T23:25:38.220Z,88.80
2018-08-23T23:28:07.201Z,88.80
2018-08-23T23:30:36.192Z,88.40
2018-08-23T23:33:05.182Z,88.40
2018-08-23T23:35:34.168Z,88.30
2018-08-23T23:38:03.120Z,88.10
2018-08-23T23:40:32.200Z,88.10
2018-08-23T23:43:01.196Z,87.90
2018-08-23T23:45:30.145Z,87.90
2018-08-23T23:47:59.178Z,88.00
2018-08-23T23:50:28.132Z,88.10
2018-08-23T23:52:57.143Z,88.20
2018-08-23T23:55:26.129Z,88.10
2018-08-23T23:57:55.080Z,88.00
